Nearby METAR Reports

 

EGEO - Oban, United Kingdom
Distance from station: SSW 18mi, 30km
Updated: 23/07/2021 15:50
NOT Current
Clear
Clear
 Wind from W
Wind: W 8 mph , 13 km/h
Temperature: 23°C
Dew Point: 18°C
Humidity: 74%
Barometer: 1016 hPa
Summary: Clear
Visibility: greater than 7 miles , 10 km
2021/07/23 14:50 EGEO 231450Z 27007KT CAVOK 23/18 Q1016
EGPU - Tiree, United Kingdom
Distance from station: WSW 64mi, 103km
Updated: 24/07/2021 04:20
Mist, Clear
Mist, Clear
 Wind from NNE
Wind: NNE 5 mph , 7 km/h
Temperature: 13°C
Dew Point: 13°C
Humidity: 100%
Barometer: 1013 hPa
Summary: Mist
Clouds: Clear
Visibility: 3 miles , 5 km
2021/07/24 03:20 EGPU 240320Z AUTO 02004KT 5000 BR NCD 13/13 Q1013
EGPF - Glasgow, United Kingdom
Distance from station: SSE 66mi, 107km
Updated: 24/07/2021 04:20
Mostly cloudy
Mostly cloudy
 Wind from ENE
Wind: ENE 7 mph , 11 km/h
Temperature: 14°C
Dew Point: 13°C
Humidity: 94%
Barometer: 1015 hPa
Clouds: Mostly cloudy
Visibility: 6 miles , 10 km
Cloud details: Mostly cloudy 274 m
2021/07/24 03:20 EGPF 240320Z AUTO 06006KT 9999 BKN009 14/13 Q1015
 
EGPE - Inverness, United Kingdom
Distance from station: NE 71mi, 114km
Updated: 24/07/2021 04:20
Overcast
Overcast
 Wind from varies
Wind: varies 1 mph , 2 km/h
Temperature: 13°C
Dew Point: 12°C
Humidity: 94%
Barometer: 1015 hPa
Clouds: Overcast
Visibility: 4 miles , 6 km
Cloud details: Overcast 61 m
2021/07/24 03:20 EGPE 240320Z VRB01KT 6000 OVC002 13/12 Q1015
EGPI - Islay/Port Ellen, United Kingdom
Distance from station: SSW 81mi, 131km
Updated: 24/07/2021 04:20
Clear
Clear
 Wind from ESE
Wind: ESE 9 mph , 15 km/h
Temperature: 16°C
Dew Point: 14°C
Humidity: 88%
Barometer: 1013 hPa
Clouds: Clear
Visibility: 6 miles , 10 km
2021/07/24 03:20 EGPI 240320Z AUTO 12008KT 090V150 9999 NCD 16/14 Q1013
EGPN - Dundee/Riverside, United Kingdom
Distance from station: E 86mi, 138km
Updated: 23/07/2021 20:50
NOT Current
Few Clouds
Few Clouds
 Wind from E
Wind: E 6 mph , 9 km/h
Temperature: 16°C
Dew Point: 13°C
Humidity: 83%
Barometer: 1017 hPa
Clouds: Few Clouds
Visibility: 6 miles , 10 km
Cloud details: Few Clouds 488 m
2021/07/23 19:50 EGPN 231950Z 09005KT 9999 FEW016 16/13 Q1017
 
EGPK - Prestwick, United Kingdom
Distance from station: SSE 88mi, 141km
Updated: 24/07/2021 04:20
Clear
Clear
 Wind from varies
Wind: varies 1 mph , 2 km/h
Temperature: 13°C
Dew Point: 12°C
Humidity: 94%
Barometer: 1014 hPa
Summary: Clear
Visibility: greater than 7 miles , 10 km
2021/07/24 03:20 EGPK 240320Z VRB01KT CAVOK 13/12 Q1014
EGPH - Edinburgh, United Kingdom
Distance from station: SE 89mi, 143km
Updated: 24/07/2021 04:20
Overcast
Overcast
 Wind from varies
Wind: varies 1 mph , 2 km/h
Temperature: 12°C
Dew Point: 11°C
Humidity: 94%
Barometer: 1014 hPa
Clouds: Overcast
Visibility: 6 miles , 10 km
Cloud details: Overcast 152 m
2021/07/24 03:20 EGPH 240320Z VRB01KT 9999 OVC005 12/11 Q1014
EGQK - RAF Kinloss, United Kingdom
Distance from station: NE 90mi, 144km
Updated: 24/07/2021 03:50
Mist, Overcast
Mist, Overcast
 Wind from calm
Wind: Calm
Temperature: 13°C
Dew Point: 13°C
Humidity: 100%
Barometer: 1015 hPa
Summary: Mist
Clouds: Overcast
Visibility: 3 miles , 4 km
Cloud details: Overcast 61 m
2021/07/24 02:50 EGQK 240250Z AUTO 00000KT 4300 BR OVC002/// 13/13 Q1015
 
EGEC - Campbeltown, United Kingdom
Distance from station: S 90mi, 145km
Updated: 23/07/2021 20:50
NOT Current
Clear
Clear
 Wind from NW
Wind: NW 3 mph , 6 km/h
Temperature: 19°C
Dew Point: 15°C
Humidity: 78%
Barometer: 1014 hPa
Summary: Clear
Visibility: greater than 7 miles , 10 km
2021/07/23 19:50 EGEC 231950Z 32003KT CAVOK 19/15 Q1014
EGQA - Tain Range, United Kingdom
Distance from station: NNE 91mi, 146km
Updated: 23/07/2021 10:50
NOT Current
Mostly cloudy
Mostly cloudy
 Wind from E
Wind: E 6 mph , 9 km/h
Clouds: Mostly cloudy
Visibility: 6 miles , 10 km
Cloud details: Mostly cloudy 122 m
2021/07/23 09:50 EGQA 230950Z 09005KT 9999 BKN004 15/// Q1021 RMK YLO2
EGQL - RAF Leuchars, United Kingdom
Distance from station: ESE 93mi, 149km
Updated: 24/07/2021 03:50
Overcast
Overcast
 Wind from N
Wind: N 3 mph , 6 km/h
Temperature: 14°C
Dew Point: 13°C
Humidity: 94%
Barometer: 1015 hPa
Clouds: Overcast
Visibility: 6 miles , 10 km
Cloud details: Overcast 427 m
2021/07/24 02:50 EGQL 240250Z 36003KT 9999 OVC014 14/13 Q1015 RMK GRN
 
EGPL - Benbecula, United Kingdom
Distance from station: WNW 96mi, 154km
Updated: 24/07/2021 04:20
Clear
Clear
 Wind from ENE
Wind: ENE 3 mph , 6 km/h
Temperature: 12°C
Dew Point: 11°C
Humidity: 94%
Barometer: 1013 hPa
Clouds: Clear
Visibility: 6 miles , 10 km
2021/07/24 03:20 EGPL 240320Z AUTO 06003KT 9999 NCD 12/11 Q1013
EGQS - RAF Lossiemouth, United Kingdom
Distance from station: NE 99mi, 160km
Updated: 24/07/2021 03:50
Mist, Overcast
Mist, Overcast
 Wind from WSW
Wind: WSW 6 mph , 9 km/h
Temperature: 13°C
Dew Point: 13°C
Humidity: 100%
Barometer: 1015 hPa
Summary: Mist
Clouds: Overcast
Visibility: 1 mile , 1 km
Cloud details: Overcast 61 m
2021/07/24 02:50 EGQS 240250Z 24005KT 1200 BR OVC002 13/13 Q1015 RMK AMB
EGPO - Stornoway, United Kingdom
Distance from station: NNW 111mi, 179km
Updated: 24/07/2021 04:20
Clear
Clear
 Wind from varies
Wind: varies 1 mph , 2 km/h
Temperature: 9°C
Dew Point: 8°C
Humidity: 94%
Barometer: 1014 hPa
Clouds: Clear
Visibility: 6 miles , 10 km
2021/07/24 03:20 EGPO 240320Z AUTO VRB01KT 9999 NCD 09/08 Q1014
 
EGPD - Aberdeen/Dyce, United Kingdom
Distance from station: ENE 118mi, 190km
Updated: 24/07/2021 04:20
Overcast
Overcast
 Wind from S
Wind: S 7 mph , 11 km/h
Temperature: 13°C
Dew Point: 12°C
Humidity: 94%
Barometer: 1015 hPa
Clouds: Overcast
Visibility: 6 miles , 10 km
Cloud details: Overcast 274 m
2021/07/24 03:20 EGPD 240320Z AUTO 19006KT 9999 OVC009 13/12 Q1015 NOSIG
EGAE - Eglinton/Londond, United Kingdom
Distance from station: SSW 138mi, 222km
Updated: 23/07/2021 20:20
NOT Current
Few Clouds
Few Clouds
 Wind from NE
Wind: NE 8 mph , 13 km/h
Temperature: 23°C
Dew Point: 19°C
Humidity: 78%
Barometer: 1014 hPa
Clouds: Few Clouds
Visibility: 6 miles , 10 km
Cloud details: Few Clouds 1128 m
2021/07/23 19:20 EGAE 231920Z 04007KT 9999 FEW037 23/19 Q1014
EGPC - Wick, United Kingdom
Distance from station: NNE 144mi, 232km
Updated: 24/07/2021 04:20
Overcast
Overcast
 Wind from E
Wind: E 7 mph , 11 km/h
Temperature: 11°C
Dew Point: 10°C
Humidity: 94%
Barometer: 1015 hPa
Clouds: Overcast
Visibility: 6 miles , 10 km
Cloud details: Overcast 335 m
2021/07/24 03:20 EGPC 240320Z AUTO 08006KT 9999 OVC011/// 11/10 Q1015

Metar display script from Saratoga-Weather.org